sensor_id;sensor_type;location;lat;lon;timestamp;temperature;humidity
2112;DHT22;1062;52.538;13.400;2023-03-22T00:00:51;10.20;99.90
2112;DHT22;1062;52.538;13.400;2023-03-22T00:03:18;10.10;99.90
2112;DHT22;1062;52.538;13.400;2023-03-22T00:05:44;10.20;99.90
2112;DHT22;1062;52.538;13.400;2023-03-22T00:08:09;10.20;99.90
2112;DHT22;1062;52.538;13.400;2023-03-22T00:10:36;10.10;99.90
2112;DHT22;1062;52.538;13.400;2023-03-22T00:13:04;10.10;99.90
2112;DHT22;1062;52.538;13.400;2023-03-22T00:15:30;10.10;99.90
2112;DHT22;1062;52.538;13.400;2023-03-22T00:17:56;10.00;99.90
2112;DHT22;1062;52.538;13.400;2023-03-22T00:20:27;10.00;99.90
2112;DHT22;1062;52.538;13.400;2023-03-22T00:22:55;10.00;99.90
2112;DHT22;1062;52.538;13.400;2023-03-22T00:25:21;10.00;99.90
2112;DHT22;1062;52.538;13.400;2023-03-22T00:27:47;9.90;99.90
2112;DHT22;1062;52.538;13.400;2023-03-22T00:30:13;9.90;99.90
2112;DHT22;1062;52.538;13.400;2023-03-22T00:32:39;9.80;99.90
2112;DHT22;1062;52.538;13.400;2023-03-22T00:35:07;9.80;99.90
2112;DHT22;1062;52.538;13.400;2023-03-22T00:37:33;9.70;99.90
2112;DHT22;1062;52.538;13.400;2023-03-22T00:40:04;9.70;99.90
2112;DHT22;1062;52.538;13.400;2023-03-22T00:42:36;9.70;99.90
2112;DHT22;1062;52.538;13.400;2023-03-22T00:45:03;9.70;99.90
2112;DHT22;1062;52.538;13.400;2023-03-22T00:47:29;9.70;99.90
2112;DHT22;1062;52.538;13.400;2023-03-22T00:49:55;9.70;99.90
2112;DHT22;1062;52.538;13.400;2023-03-22T00:52:21;9.70;99.90
2112;DHT22;1062;52.538;13.400;2023-03-22T00:54:47;9.70;99.90
2112;DHT22;1062;52.538;13.400;2023-03-22T00:57:13;9.70;99.90
2112;DHT22;1062;52.538;13.400;2023-03-22T00:59:39;9.70;99.90
2112;DHT22;1062;52.538;13.400;2023-03-22T01:02:07;9.80;99.90
2112;DHT22;1062;52.538;13.400;2023-03-22T01:04:34;9.70;99.90
2112;DHT22;1062;52.538;13.400;2023-03-22T01:07:01;9.70;99.90
2112;DHT22;1062;52.538;13.400;2023-03-22T01:09:29;9.70;99.90
2112;DHT22;1062;52.538;13.400;2023-03-22T01:11:55;9.70;99.90
2112;DHT22;1062;52.538;13.400;2023-03-22T01:14:23;9.70;99.90
2112;DHT22;1062;52.538;13.400;2023-03-22T01:16:48;9.60;99.90
2112;DHT22;1062;52.538;13.400;2023-03-22T01:19:14;9.60;99.90
2112;DHT22;1062;52.538;13.400;2023-03-22T01:21:40;9.60;99.90
2112;DHT22;1062;52.538;13.400;2023-03-22T01:24:06;9.60;99.90
2112;DHT22;1062;52.538;13.400;2023-03-22T01:26:32;9.60;99.90
2112;DHT22;1062;52.538;13.400;2023-03-22T01:28:58;9.60;99.90
2112;DHT22;1062;52.538;13.400;2023-03-22T01:31:23;9.60;99.90
2112;DHT22;1062;52.538;13.400;2023-03-22T01:33:49;9.60;99.90
2112;DHT22;1062;52.538;13.400;2023-03-22T01:36:15;9.60;99.90
2112;DHT22;1062;52.538;13.400;2023-03-22T01:38:40;9.60;99.90
2112;DHT22;1062;52.538;13.400;2023-03-22T01:41:06;9.60;99.90
2112;DHT22;1062;52.538;13.400;2023-03-22T01:43:32;9.70;99.90
2112;DHT22;1062;52.538;13.400;2023-03-22T01:45:57;9.60;99.90
2112;DHT22;1062;52.538;13.400;2023-03-22T01:48:30;9.70;99.90
2112;DHT22;1062;52.538;13.400;2023-03-22T01:51:13;9.60;99.90
2112;DHT22;1062;52.538;13.400;2023-03-22T01:53:43;9.70;99.90
2112;DHT22;1062;52.538;13.400;2023-03-22T01:56:10;9.70;99.90
2112;DHT22;1062;52.538;13.400;2023-03-22T01:58:37;9.60;99.90
2112;DHT22;1062;52.538;13.400;2023-03-22T02:01:04;9.60;99.90
2112;DHT22;1062;52.538;13.400;2023-03-22T02:06:09;9.60;99.90
2112;DHT22;1062;52.538;13.400;2023-03-22T02:08:35;9.60;99.90
2112;DHT22;1062;52.538;13.400;2023-03-22T02:11:01;9.60;99.90
2112;DHT22;1062;52.538;13.400;2023-03-22T02:13:49;9.60;99.90
2112;DHT22;1062;52.538;13.400;2023-03-22T02:16:37;9.50;99.90
2112;DHT22;1062;52.538;13.400;2023-03-22T02:27:38;9.50;99.90
2112;DHT22;1062;52.538;13.400;2023-03-22T02:36:27;9.40;99.90
2112;DHT22;1062;52.538;13.400;2023-03-22T02:42:22;9.40;99.90
2112;DHT22;1062;52.538;13.400;2023-03-22T02:45:37;9.40;99.90
2112;DHT22;1062;52.538;13.400;2023-03-22T02:48:12;9.30;99.90
2112;DHT22;1062;52.538;13.400;2023-03-22T02:56:00;9.20;99.90
2112;DHT22;1062;52.538;13.400;2023-03-22T02:58:32;9.20;99.90
2112;DHT22;1062;52.538;13.400;2023-03-22T03:01:05;9.20;99.90
2112;DHT22;1062;52.538;13.400;2023-03-22T03:03:32;9.20;99.90
2112;DHT22;1062;52.538;13.400;2023-03-22T03:06:09;9.20;99.90
2112;DHT22;1062;52.538;13.400;2023-03-22T03:08:36;9.20;99.90
2112;DHT22;1062;52.538;13.400;2023-03-22T03:11:03;9.20;99.90
2112;DHT22;1062;52.538;13.400;2023-03-22T03:13:29;9.20;99.90
2112;DHT22;1062;52.538;13.400;2023-03-22T03:15:56;9.20;99.90
2112;DHT22;1062;52.538;13.400;2023-03-22T03:18:36;9.20;99.90
2112;DHT22;1062;52.538;13.400;2023-03-22T03:26:22;9.00;99.90
2112;DHT22;1062;52.538;13.400;2023-03-22T03:29:02;9.00;99.90
2112;DHT22;1062;52.538;13.400;2023-03-22T03:34:49;9.00;99.90
2112;DHT22;1062;52.538;13.400;2023-03-22T03:37:26;9.00;99.90
2112;DHT22;1062;52.538;13.400;2023-03-22T03:40:10;8.90;99.90
2112;DHT22;1062;52.538;13.400;2023-03-22T03:42:41;8.90;99.90
2112;DHT22;1062;52.538;13.400;2023-03-22T03:45:09;8.90;99.90
2112;DHT22;1062;52.538;13.400;2023-03-22T03:47:35;8.90;99.90
2112;DHT22;1062;52.538;13.400;2023-03-22T03:50:03;8.90;99.90
2112;DHT22;1062;52.538;13.400;2023-03-22T03:52:29;8.90;99.90
2112;DHT22;1062;52.538;13.400;2023-03-22T03:54:54;8.90;99.90
2112;DHT22;1062;52.538;13.400;2023-03-22T03:57:20;8.90;99.90
2112;DHT22;1062;52.538;13.400;2023-03-22T03:59:46;8.90;99.90
2112;DHT22;1062;52.538;13.400;2023-03-22T04:02:12;8.90;99.90
2112;DHT22;1062;52.538;13.400;2023-03-22T04:04:37;9.00;99.90
2112;DHT22;1062;52.538;13.400;2023-03-22T04:07:05;9.00;99.90
2112;DHT22;1062;52.538;13.400;2023-03-22T04:09:33;9.00;99.90
2112;DHT22;1062;52.538;13.400;2023-03-22T04:11:59;9.00;99.90
2112;DHT22;1062;52.538;13.400;2023-03-22T04:14:25;9.00;99.90
2112;DHT22;1062;52.538;13.400;2023-03-22T04:16:52;9.00;99.90
2112;DHT22;1062;52.538;13.400;2023-03-22T04:19:18;9.00;99.90
2112;DHT22;1062;52.538;13.400;2023-03-22T04:21:43;9.00;99.90
2112;DHT22;1062;52.538;13.400;2023-03-22T04:24:10;9.10;99.90
2112;DHT22;1062;52.538;13.400;2023-03-22T04:26:36;9.10;99.90
2112;DHT22;1062;52.538;13.400;2023-03-22T04:29:03;9.10;99.90
2112;DHT22;1062;52.538;13.400;2023-03-22T04:31:30;9.10;99.90
2112;DHT22;1062;52.538;13.400;2023-03-22T04:33:56;9.10;99.90
2112;DHT22;1062;52.538;13.400;2023-03-22T04:36:22;9.10;99.90
2112;DHT22;1062;52.538;13.400;2023-03-22T04:38:49;9.10;99.90
2112;DHT22;1062;52.538;13.400;2023-03-22T04:41:14;9.10;99.90
2112;DHT22;1062;52.538;13.400;2023-03-22T04:43:40;9.10;99.90
2112;DHT22;1062;52.538;13.400;2023-03-22T04:46:07;9.10;99.90
2112;DHT22;1062;52.538;13.400;2023-03-22T04:48:37;9.10;99.90
2112;DHT22;1062;52.538;13.400;2023-03-22T04:51:05;9.10;99.90
2112;DHT22;1062;52.538;13.400;2023-03-22T04:53:31;9.10;99.90
2112;DHT22;1062;52.538;13.400;2023-03-22T04:55:57;9.10;99.90
2112;DHT22;1062;52.538;13.400;2023-03-22T04:58:24;9.10;99.90
2112;DHT22;1062;52.538;13.400;2023-03-22T05:00:51;9.10;99.90
2112;DHT22;1062;52.538;13.400;2023-03-22T05:03:19;9.10;99.90
2112;DHT22;1062;52.538;13.400;2023-03-22T05:05:56;9.10;99.90
2112;DHT22;1062;52.538;13.400;2023-03-22T05:08:23;9.10;99.90
2112;DHT22;1062;52.538;13.400;2023-03-22T05:10:52;9.10;99.90
2112;DHT22;1062;52.538;13.400;2023-03-22T05:13:19;9.10;99.90
2112;DHT22;1062;52.538;13.400;2023-03-22T05:15:45;9.10;99.90
2112;DHT22;1062;52.538;13.400;2023-03-22T05:18:12;9.20;99.90
2112;DHT22;1062;52.538;13.400;2023-03-22T05:20:39;9.10;99.90
2112;DHT22;1062;52.538;13.400;2023-03-22T05:23:05;9.10;99.90
2112;DHT22;1062;52.538;13.400;2023-03-22T05:25:31;9.20;99.90
2112;DHT22;1062;52.538;13.400;2023-03-22T05:27:57;9.20;99.90
2112;DHT22;1062;52.538;13.400;2023-03-22T05:30:27;9.20;99.90
2112;DHT22;1062;52.538;13.400;2023-03-22T05:33:00;9.20;99.90
2112;DHT22;1062;52.538;13.400;2023-03-22T05:35:28;9.20;99.90
2112;DHT22;1062;52.538;13.400;2023-03-22T05:37:53;9.20;99.90
2112;DHT22;1062;52.538;13.400;2023-03-22T05:40:19;9.20;99.90
2112;DHT22;1062;52.538;13.400;2023-03-22T05:42:45;9.20;99.90
2112;DHT22;1062;52.538;13.400;2023-03-22T05:45:10;9.20;99.90
2112;DHT22;1062;52.538;13.400;2023-03-22T05:47:36;9.20;99.90
2112;DHT22;1062;52.538;13.400;2023-03-22T05:50:05;9.20;99.90
2112;DHT22;1062;52.538;13.400;2023-03-22T05:52:31;9.20;99.90
2112;DHT22;1062;52.538;13.400;2023-03-22T05:54:57;9.20;99.90
2112;DHT22;1062;52.538;13.400;2023-03-22T05:57:22;9.20;99.90
2112;DHT22;1062;52.538;13.400;2023-03-22T05:59:48;9.20;99.90
2112;DHT22;1062;52.538;13.400;2023-03-22T06:02:14;9.30;99.90
2112;DHT22;1062;52.538;13.400;2023-03-22T06:04:39;9.20;99.90
2112;DHT22;1062;52.538;13.400;2023-03-22T06:07:08;9.40;99.90
2112;DHT22;1062;52.538;13.400;2023-03-22T06:09:34;9.40;99.90
2112;DHT22;1062;52.538;13.400;2023-03-22T06:11:59;9.30;99.90
2112;DHT22;1062;52.538;13.400;2023-03-22T06:14:25;9.30;99.90
2112;DHT22;1062;52.538;13.400;2023-03-22T06:16:50;9.30;99.90
2112;DHT22;1062;52.538;13.400;2023-03-22T06:19:17;9.30;99.90
2112;DHT22;1062;52.538;13.400;2023-03-22T06:21:42;9.30;99.90
2112;DHT22;1062;52.538;13.400;2023-03-22T06:24:08;9.40;99.90
2112;DHT22;1062;52.538;13.400;2023-03-22T06:26:34;9.40;99.90
2112;DHT22;1062;52.538;13.400;2023-03-22T06:28:59;9.40;99.90
2112;DHT22;1062;52.538;13.400;2023-03-22T06:31:28;9.40;99.90
2112;DHT22;1062;52.538;13.400;2023-03-22T06:33:54;9.40;99.90
2112;DHT22;1062;52.538;13.400;2023-03-22T06:36:20;9.50;99.90
2112;DHT22;1062;52.538;13.400;2023-03-22T06:38:45;9.50;99.90
2112;DHT22;1062;52.538;13.400;2023-03-22T06:41:11;9.60;99.90
2112;DHT22;1062;52.538;13.400;2023-03-22T06:43:36;9.60;99.90
2112;DHT22;1062;52.538;13.400;2023-03-22T06:46:02;9.70;99.90
2112;DHT22;1062;52.538;13.400;2023-03-22T06:48:28;9.70;99.90
2112;DHT22;1062;52.538;13.400;2023-03-22T06:50:53;9.70;99.90
2112;DHT22;1062;52.538;13.400;2023-03-22T06:53:19;9.70;99.90
2112;DHT22;1062;52.538;13.400;2023-03-22T06:55:44;9.70;99.90
2112;DHT22;1062;52.538;13.400;2023-03-22T06:58:11;9.70;99.90
2112;DHT22;1062;52.538;13.400;2023-03-22T07:00:37;9.80;99.90
2112;DHT22;1062;52.538;13.400;2023-03-22T07:03:03;9.80;99.90
2112;DHT22;1062;52.538;13.400;2023-03-22T07:05:29;9.80;99.90
2112;DHT22;1062;52.538;13.400;2023-03-22T07:07:54;9.90;99.90
2112;DHT22;1062;52.538;13.400;2023-03-22T07:10:20;9.90;99.90
2112;DHT22;1062;52.538;13.400;2023-03-22T07:12:46;10.00;99.90
2112;DHT22;1062;52.538;13.400;2023-03-22T07:15:11;10.00;99.90
2112;DHT22;1062;52.538;13.400;2023-03-22T07:17:37;10.00;99.90
2112;DHT22;1062;52.538;13.400;2023-03-22T07:20:03;10.10;99.90
2112;DHT22;1062;52.538;13.400;2023-03-22T07:22:28;10.20;99.90
2112;DHT22;1062;52.538;13.400;2023-03-22T07:24:54;10.30;99.90
2112;DHT22;1062;52.538;13.400;2023-03-22T07:27:20;10.30;99.90
2112;DHT22;1062;52.538;13.400;2023-03-22T07:29:46;10.30;99.90
2112;DHT22;1062;52.538;13.400;2023-03-22T07:32:11;10.30;99.90
2112;DHT22;1062;52.538;13.400;2023-03-22T07:34:37;10.40;99.90
2112;DHT22;1062;52.538;13.400;2023-03-22T07:37:03;10.50;99.90
2112;DHT22;1062;52.538;13.400;2023-03-22T07:39:29;10.50;99.90
2112;DHT22;1062;52.538;13.400;2023-03-22T07:41:55;10.50;99.90
2112;DHT22;1062;52.538;13.400;2023-03-22T07:44:21;10.60;99.90
2112;DHT22;1062;52.538;13.400;2023-03-22T07:46:47;10.60;99.90
2112;DHT22;1062;52.538;13.400;2023-03-22T07:49:13;10.60;99.90
2112;DHT22;1062;52.538;13.400;2023-03-22T07:51:39;10.80;99.90
2112;DHT22;1062;52.538;13.400;2023-03-22T07:54:05;11.00;99.90
2112;DHT22;1062;52.538;13.400;2023-03-22T07:56:31;11.10;99.90
2112;DHT22;1062;52.538;13.400;2023-03-22T07:58:56;11.30;99.90
2112;DHT22;1062;52.538;13.400;2023-03-22T08:01:22;11.60;99.90
2112;DHT22;1062;52.538;13.400;2023-03-22T08:03:49;11.80;99.90
2112;DHT22;1062;52.538;13.400;2023-03-22T08:06:15;11.60;99.90
2112;DHT22;1062;52.538;13.400;2023-03-22T08:08:43;11.50;99.90
2112;DHT22;1062;52.538;13.400;2023-03-22T08:11:09;11.80;99.90
2112;DHT22;1062;52.538;13.400;2023-03-22T08:13:36;12.40;99.90
2112;DHT22;1062;52.538;13.400;2023-03-22T08:16:03;12.40;99.90
2112;DHT22;1062;52.538;13.400;2023-03-22T08:18:28;12.80;99.90
2112;DHT22;1062;52.538;13.400;2023-03-22T08:20:55;12.70;99.90
2112;DHT22;1062;52.538;13.400;2023-03-22T08:23:23;12.70;99.90
2112;DHT22;1062;52.538;13.400;2023-03-22T08:25:49;12.80;99.90
2112;DHT22;1062;52.538;13.400;2023-03-22T08:28:15;13.00;99.90
2112;DHT22;1062;52.538;13.400;2023-03-22T08:30:42;12.90;99.90
2112;DHT22;1062;52.538;13.400;2023-03-22T08:33:08;12.70;99.90
2112;DHT22;1062;52.538;13.400;2023-03-22T08:35:34;12.70;99.90
2112;DHT22;1062;52.538;13.400;2023-03-22T08:37:59;12.70;99.90
2112;DHT22;1062;52.538;13.400;2023-03-22T08:40:25;12.70;99.90
2112;DHT22;1062;52.538;13.400;2023-03-22T08:42:51;12.80;99.90
2112;DHT22;1062;52.538;13.400;2023-03-22T08:45:17;12.90;99.90
2112;DHT22;1062;52.538;13.400;2023-03-22T08:47:43;12.80;99.90
2112;DHT22;1062;52.538;13.400;2023-03-22T08:50:10;12.90;99.90
2112;DHT22;1062;52.538;13.400;2023-03-22T08:52:36;13.00;99.90
2112;DHT22;1062;52.538;13.400;2023-03-22T08:55:03;12.70;99.90
2112;DHT22;1062;52.538;13.400;2023-03-22T08:57:29;12.70;99.90
2112;DHT22;1062;52.538;13.400;2023-03-22T08:59:55;12.90;99.90
2112;DHT22;1062;52.538;13.400;2023-03-22T09:02:25;13.20;99.90
2112;DHT22;1062;52.538;13.400;2023-03-22T09:04:51;13.20;99.90
2112;DHT22;1062;52.538;13.400;2023-03-22T09:07:17;13.20;99.90
2112;DHT22;1062;52.538;13.400;2023-03-22T09:09:44;13.30;99.90
2112;DHT22;1062;52.538;13.400;2023-03-22T09:12:10;13.30;99.90
2112;DHT22;1062;52.538;13.400;2023-03-22T09:14:36;13.30;99.90
2112;DHT22;1062;52.538;13.400;2023-03-22T09:17:02;13.20;99.90
2112;DHT22;1062;52.538;13.400;2023-03-22T09:19:28;13.40;99.90
2112;DHT22;1062;52.538;13.400;2023-03-22T09:21:54;13.60;99.90
2112;DHT22;1062;52.538;13.400;2023-03-22T09:24:20;13.80;99.90
2112;DHT22;1062;52.538;13.400;2023-03-22T09:26:45;14.00;99.90
2112;DHT22;1062;52.538;13.400;2023-03-22T09:29:12;14.20;99.90
2112;DHT22;1062;52.538;13.400;2023-03-22T09:31:37;14.20;99.90
2112;DHT22;1062;52.538;13.400;2023-03-22T09:34:03;14.50;99.90
2112;DHT22;1062;52.538;13.400;2023-03-22T09:36:30;14.70;99.90
2112;DHT22;1062;52.538;13.400;2023-03-22T09:38:56;14.70;99.90
2112;DHT22;1062;52.538;13.400;2023-03-22T09:44:44;14.60;99.90
2112;DHT22;1062;52.538;13.400;2023-03-22T09:47:23;14.90;99.90
2112;DHT22;1062;52.538;13.400;2023-03-22T09:49:56;14.80;99.90
2112;DHT22;1062;52.538;13.400;2023-03-22T09:52:24;14.90;99.90
2112;DHT22;1062;52.538;13.400;2023-03-22T09:54:50;14.90;99.90
2112;DHT22;1062;52.538;13.400;2023-03-22T09:57:35;15.10;99.90
2112;DHT22;1062;52.538;13.400;2023-03-22T10:00:15;15.10;99.90
2112;DHT22;1062;52.538;13.400;2023-03-22T10:05:54;15.50;99.90
2112;DHT22;1062;52.538;13.400;2023-03-22T10:10:58;16.30;99.90
2112;DHT22;1062;52.538;13.400;2023-03-22T10:13:44;16.20;99.90
2112;DHT22;1062;52.538;13.400;2023-03-22T10:16:26;15.90;99.90
2112;DHT22;1062;52.538;13.400;2023-03-22T10:19:39;16.00;99.90
2112;DHT22;1062;52.538;13.400;2023-03-22T10:21:45;16.10;99.90
2112;DHT22;1062;52.538;13.400;2023-03-22T10:24:25;16.00;99.90
2112;DHT22;1062;52.538;13.400;2023-03-22T10:26:52;15.80;99.90
2112;DHT22;1062;52.538;13.400;2023-03-22T10:32:11;16.00;99.90
2112;DHT22;1062;52.538;13.400;2023-03-22T10:34:37;16.10;99.90
2112;DHT22;1062;52.538;13.400;2023-03-22T10:37:05;16.40;99.90
2112;DHT22;1062;52.538;13.400;2023-03-22T10:39:37;16.30;99.90
2112;DHT22;1062;52.538;13.400;2023-03-22T10:42:09;16.70;99.90
2112;DHT22;1062;52.538;13.400;2023-03-22T10:44:49;16.80;99.90
2112;DHT22;1062;52.538;13.400;2023-03-22T10:47:25;16.80;99.90
2112;DHT22;1062;52.538;13.400;2023-03-22T10:49:53;16.90;99.90
2112;DHT22;1062;52.538;13.400;2023-03-22T10:54:51;16.90;99.90
2112;DHT22;1062;52.538;13.400;2023-03-22T10:57:18;16.80;99.90
2112;DHT22;1062;52.538;13.400;2023-03-22T10:59:49;16.90;99.90
2112;DHT22;1062;52.538;13.400;2023-03-22T11:02:27;16.70;99.90
2112;DHT22;1062;52.538;13.400;2023-03-22T11:04:57;16.80;99.90
2112;DHT22;1062;52.538;13.400;2023-03-22T11:07:33;16.50;99.90
2112;DHT22;1062;52.538;13.400;2023-03-22T11:10:11;16.20;99.90
2112;DHT22;1062;52.538;13.400;2023-03-22T11:12:42;16.30;99.90
2112;DHT22;1062;52.538;13.400;2023-03-22T11:15:20;16.60;99.90
2112;DHT22;1062;52.538;13.400;2023-03-22T11:17:47;16.30;99.90
2112;DHT22;1062;52.538;13.400;2023-03-22T11:20:15;16.20;99.90
2112;DHT22;1062;52.538;13.400;2023-03-22T11:22:43;16.40;99.90
2112;DHT22;1062;52.538;13.400;2023-03-22T11:27:53;16.40;99.90
2112;DHT22;1062;52.538;13.400;2023-03-22T11:30:26;16.40;99.90
2112;DHT22;1062;52.538;13.400;2023-03-22T11:33:01;16.50;99.90
2112;DHT22;1062;52.538;13.400;2023-03-22T11:35:38;16.50;99.90
2112;DHT22;1062;52.538;13.400;2023-03-22T11:38:03;16.30;99.90
2112;DHT22;1062;52.538;13.400;2023-03-22T11:40:32;16.50;99.90
2112;DHT22;1062;52.538;13.400;2023-03-22T11:43:20;16.50;99.90
2112;DHT22;1062;52.538;13.400;2023-03-22T11:45:49;16.30;99.90
2112;DHT22;1062;52.538;13.400;2023-03-22T11:48:20;16.30;99.90
2112;DHT22;1062;52.538;13.400;2023-03-22T11:50:48;16.50;99.90
2112;DHT22;1062;52.538;13.400;2023-03-22T11:53:19;16.90;99.90
2112;DHT22;1062;52.538;13.400;2023-03-22T11:55:48;17.10;99.90
2112;DHT22;1062;52.538;13.400;2023-03-22T11:58:41;16.80;99.90
2112;DHT22;1062;52.538;13.400;2023-03-22T12:01:12;16.50;99.90
2112;DHT22;1062;52.538;13.400;2023-03-22T12:03:41;16.70;99.90
2112;DHT22;1062;52.538;13.400;2023-03-22T12:06:21;16.80;99.90
2112;DHT22;1062;52.538;13.400;2023-03-22T12:08:55;16.90;99.90
2112;DHT22;1062;52.538;13.400;2023-03-22T12:11:28;16.90;99.90
2112;DHT22;1062;52.538;13.400;2023-03-22T12:16:34;17.30;99.90
2112;DHT22;1062;52.538;13.400;2023-03-22T12:22:11;16.80;99.90
2112;DHT22;1062;52.538;13.400;2023-03-22T12:24:37;17.10;99.90
2112;DHT22;1062;52.538;13.400;2023-03-22T12:27:16;17.20;99.90
2112;DHT22;1062;52.538;13.400;2023-03-22T12:32:28;17.00;99.90
2112;DHT22;1062;52.538;13.400;2023-03-22T12:34:55;17.20;99.90
2112;DHT22;1062;52.538;13.400;2023-03-22T12:37:27;17.30;99.90
2112;DHT22;1062;52.538;13.400;2023-03-22T12:42:34;17.10;99.90
2112;DHT22;1062;52.538;13.400;2023-03-22T12:45:03;17.20;99.90
2112;DHT22;1062;52.538;13.400;2023-03-22T12:47:40;17.30;99.90
2112;DHT22;1062;52.538;13.400;2023-03-22T12:52:51;17.30;99.90
2112;DHT22;1062;52.538;13.400;2023-03-22T12:55:37;17.30;99.90
2112;DHT22;1062;52.538;13.400;2023-03-22T12:58:08;17.00;99.90
2112;DHT22;1062;52.538;13.400;2023-03-22T13:00:56;17.50;99.90
2112;DHT22;1062;52.538;13.400;2023-03-22T13:03:46;17.60;99.90
2112;DHT22;1062;52.538;13.400;2023-03-22T13:06:53;17.60;99.90
2112;DHT22;1062;52.538;13.400;2023-03-22T13:09:35;17.20;99.90
2112;DHT22;1062;52.538;13.400;2023-03-22T13:30:34;17.30;99.90
2112;DHT22;1062;52.538;13.400;2023-03-22T13:35:48;17.20;99.90
2112;DHT22;1062;52.538;13.400;2023-03-22T13:38:37;17.30;99.90
2112;DHT22;1062;52.538;13.400;2023-03-22T13:41:27;17.10;99.90
2112;DHT22;1062;52.538;13.400;2023-03-22T13:43:54;17.30;99.90
2112;DHT22;1062;52.538;13.400;2023-03-22T13:56:54;17.00;99.90
2112;DHT22;1062;52.538;13.400;2023-03-22T13:59:20;16.90;99.90
2112;DHT22;1062;52.538;13.400;2023-03-22T14:02:07;16.80;99.90
2112;DHT22;1062;52.538;13.400;2023-03-22T14:04:53;16.80;99.90
2112;DHT22;1062;52.538;13.400;2023-03-22T14:07:39;16.90;99.90
2112;DHT22;1062;52.538;13.400;2023-03-22T14:10:33;16.90;99.90
2112;DHT22;1062;52.538;13.400;2023-03-22T14:13:28;17.00;99.90
2112;DHT22;1062;52.538;13.400;2023-03-22T14:16:07;17.00;99.90
2112;DHT22;1062;52.538;13.400;2023-03-22T14:18:36;17.20;99.90
2112;DHT22;1062;52.538;13.400;2023-03-22T14:21:12;17.40;99.90
2112;DHT22;1062;52.538;13.400;2023-03-22T14:23:44;17.30;99.90
2112;DHT22;1062;52.538;13.400;2023-03-22T14:26:18;17.50;99.90
2112;DHT22;1062;52.538;13.400;2023-03-22T14:28:45;17.30;99.90
2112;DHT22;1062;52.538;13.400;2023-03-22T14:31:28;17.50;99.90
2112;DHT22;1062;52.538;13.400;2023-03-22T14:33:55;17.50;99.90
2112;DHT22;1062;52.538;13.400;2023-03-22T14:36:27;17.50;99.90
2112;DHT22;1062;52.538;13.400;2023-03-22T14:38:54;17.60;99.90
2112;DHT22;1062;52.538;13.400;2023-03-22T14:41:23;17.70;99.90
2112;DHT22;1062;52.538;13.400;2023-03-22T14:44:00;17.70;99.90
2112;DHT22;1062;52.538;13.400;2023-03-22T14:46:36;17.80;99.90
2112;DHT22;1062;52.538;13.400;2023-03-22T14:49:03;17.80;99.90
2112;DHT22;1062;52.538;13.400;2023-03-22T14:51:36;17.40;99.90
2112;DHT22;1062;52.538;13.400;2023-03-22T14:54:06;17.40;99.90
2112;DHT22;1062;52.538;13.400;2023-03-22T14:56:37;17.20;99.90
2112;DHT22;1062;52.538;13.400;2023-03-22T14:59:04;17.00;99.90
2112;DHT22;1062;52.538;13.400;2023-03-22T15:01:41;16.90;99.90
2112;DHT22;1062;52.538;13.400;2023-03-22T15:04:10;16.80;99.90
2112;DHT22;1062;52.538;13.400;2023-03-22T15:06:45;16.80;99.90
2112;DHT22;1062;52.538;13.400;2023-03-22T15:09:14;16.80;99.90
2112;DHT22;1062;52.538;13.400;2023-03-22T15:11:42;16.70;99.90
2112;DHT22;1062;52.538;13.400;2023-03-22T15:14:09;16.60;99.90
2112;DHT22;1062;52.538;13.400;2023-03-22T15:16:37;16.60;99.90
2112;DHT22;1062;52.538;13.400;2023-03-22T15:19:05;16.50;99.90
2112;DHT22;1062;52.538;13.400;2023-03-22T15:21:34;16.50;99.90
2112;DHT22;1062;52.538;13.400;2023-03-22T15:24:28;16.50;99.90
2112;DHT22;1062;52.538;13.400;2023-03-22T15:26:54;16.50;99.90
2112;DHT22;1062;52.538;13.400;2023-03-22T15:29:24;16.50;99.90
2112;DHT22;1062;52.538;13.400;2023-03-22T15:31:54;16.50;99.90
2112;DHT22;1062;52.538;13.400;2023-03-22T15:34:23;16.50;99.90
2112;DHT22;1062;52.538;13.400;2023-03-22T15:36:50;16.50;99.90
2112;DHT22;1062;52.538;13.400;2023-03-22T15:39:24;16.60;99.90
2112;DHT22;1062;52.538;13.400;2023-03-22T15:41:55;16.60;99.90
2112;DHT22;1062;52.538;13.400;2023-03-22T15:44:28;16.70;99.90
2112;DHT22;1062;52.538;13.400;2023-03-22T15:49:40;16.70;99.90
2112;DHT22;1062;52.538;13.400;2023-03-22T15:57:56;16.50;99.90
2112;DHT22;1062;52.538;13.400;2023-03-22T16:05:20;16.50;99.90
2112;DHT22;1062;52.538;13.400;2023-03-22T16:07:46;16.50;99.90
2112;DHT22;1062;52.538;13.400;2023-03-22T16:10:19;16.50;99.90
2112;DHT22;1062;52.538;13.400;2023-03-22T16:12:46;16.50;99.90
2112;DHT22;1062;52.538;13.400;2023-03-22T16:15:17;16.30;99.90
2112;DHT22;1062;52.538;13.400;2023-03-22T16:17:43;16.30;99.90
2112;DHT22;1062;52.538;13.400;2023-03-22T16:20:10;16.30;99.90
2112;DHT22;1062;52.538;13.400;2023-03-22T16:22:36;16.20;99.90
2112;DHT22;1062;52.538;13.400;2023-03-22T16:25:02;16.20;99.90
2112;DHT22;1062;52.538;13.400;2023-03-22T16:27:28;16.20;99.90
2112;DHT22;1062;52.538;13.400;2023-03-22T16:29:53;16.10;99.90
2112;DHT22;1062;52.538;13.400;2023-03-22T16:32:22;16.10;99.90
2112;DHT22;1062;52.538;13.400;2023-03-22T16:34:49;16.10;99.90
2112;DHT22;1062;52.538;13.400;2023-03-22T16:37:20;16.10;99.90
2112;DHT22;1062;52.538;13.400;2023-03-22T16:39:46;16.00;99.90
2112;DHT22;1062;52.538;13.400;2023-03-22T16:42:19;16.00;99.90
2112;DHT22;1062;52.538;13.400;2023-03-22T16:44:46;15.90;99.90
2112;DHT22;1062;52.538;13.400;2023-03-22T16:47:18;15.80;99.90
2112;DHT22;1062;52.538;13.400;2023-03-22T16:49:44;15.80;99.90
2112;DHT22;1062;52.538;13.400;2023-03-22T16:52:15;15.70;99.90
2112;DHT22;1062;52.538;13.400;2023-03-22T16:54:50;15.70;99.90
2112;DHT22;1062;52.538;13.400;2023-03-22T16:57:19;15.60;99.90
2112;DHT22;1062;52.538;13.400;2023-03-22T16:59:45;15.50;99.90
2112;DHT22;1062;52.538;13.400;2023-03-22T17:02:24;15.60;99.90
2112;DHT22;1062;52.538;13.400;2023-03-22T17:04:50;15.50;99.90
2112;DHT22;1062;52.538;13.400;2023-03-22T17:07:19;15.40;99.90
2112;DHT22;1062;52.538;13.400;2023-03-22T17:09:46;15.40;99.90
2112;DHT22;1062;52.538;13.400;2023-03-22T17:12:17;15.40;99.90
2112;DHT22;1062;52.538;13.400;2023-03-22T17:14:44;15.30;99.90
2112;DHT22;1062;52.538;13.400;2023-03-22T17:17:10;15.30;99.90
2112;DHT22;1062;52.538;13.400;2023-03-22T17:19:35;15.30;99.90
2112;DHT22;1062;52.538;13.400;2023-03-22T17:22:01;15.30;99.90
2112;DHT22;1062;52.538;13.400;2023-03-22T17:24:27;15.20;99.90
2112;DHT22;1062;52.538;13.400;2023-03-22T17:26:52;15.20;99.90
2112;DHT22;1062;52.538;13.400;2023-03-22T17:29:20;15.10;99.90
2112;DHT22;1062;52.538;13.400;2023-03-22T17:31:46;15.00;99.90
2112;DHT22;1062;52.538;13.400;2023-03-22T17:34:12;15.00;99.90
2112;DHT22;1062;52.538;13.400;2023-03-22T17:36:38;15.00;99.90
2112;DHT22;1062;52.538;13.400;2023-03-22T17:39:04;14.90;99.90
2112;DHT22;1062;52.538;13.400;2023-03-22T17:41:34;14.90;99.90
2112;DHT22;1062;52.538;13.400;2023-03-22T17:44:00;14.90;99.90
2112;DHT22;1062;52.538;13.400;2023-03-22T17:46:26;14.90;99.90
2112;DHT22;1062;52.538;13.400;2023-03-22T17:48:54;14.90;99.90
2112;DHT22;1062;52.538;13.400;2023-03-22T17:51:19;14.80;99.90
2112;DHT22;1062;52.538;13.400;2023-03-22T17:53:45;14.80;99.90
2112;DHT22;1062;52.538;13.400;2023-03-22T17:56:11;14.80;99.90